createdAt,value
2022-11-12T00:02:16.894Z,99098.46
2022-11-12T00:05:20.523Z,99096.56
2022-11-12T00:08:16.542Z,99101.55
2022-11-12T00:11:12.008Z,99105.31
2022-11-12T00:14:14.604Z,99104.98
2022-11-12T00:17:15.015Z,99108.05
2022-11-12T00:20:18.336Z,99109.59
2022-11-12T00:23:17.472Z,99116.48
2022-11-12T00:26:14.118Z,99111.82
2022-11-12T00:29:13.722Z,99111.30
2022-11-12T00:32:17.388Z,99107.68
2022-11-12T00:35:15.587Z,99108.87
2022-11-12T00:38:13.374Z,99109.69
2022-11-12T00:41:12.937Z,99112.09
2022-11-12T00:44:15.459Z,99117.91
2022-11-12T00:47:13.323Z,99121.69
2022-11-12T00:50:17.558Z,99119.95
2022-11-12T00:53:15.203Z,99118.23
2022-11-12T00:56:13.203Z,99119.27
2022-11-12T00:59:12.914Z,99116.84
2022-11-12T01:02:14.156Z,99124.05
2022-11-12T01:05:26.158Z,99125.09
2022-11-12T01:08:19.523Z,99120.42
2022-11-12T01:11:13.859Z,99114.05
2022-11-12T01:14:12.850Z,99114.38
2022-11-12T01:17:13.032Z,99114.84
2022-11-12T01:20:13.727Z,99121.20
2022-11-12T01:23:15.406Z,99122.06
2022-11-12T01:26:18.029Z,99122.02
2022-11-12T01:29:15.602Z,99120.99
2022-11-12T01:32:14.366Z,99121.30
2022-11-12T01:35:13.172Z,99124.86
2022-11-12T01:38:14.030Z,99131.36
2022-11-12T01:41:17.698Z,99128.38
2022-11-12T01:44:16.372Z,99124.68
2022-11-12T01:47:20.432Z,99125.00
2022-11-12T01:50:20.176Z,99123.91
2022-11-12T01:53:17.833Z,99126.77
2022-11-12T01:56:14.366Z,99124.79
2022-11-12T01:59:14.505Z,99129.56
2022-11-12T02:02:26.750Z,99130.02
2022-11-12T02:05:22.700Z,99127.39
2022-11-12T02:08:15.716Z,99128.74
2022-11-12T02:11:20.971Z,99129.48
2022-11-12T02:14:15.638Z,99129.65
2022-11-12T02:17:11.169Z,99134.13
2022-11-12T02:20:15.595Z,99133.89
2022-11-12T02:23:16.756Z,99132.43
2022-11-12T02:26:14.836Z,99125.73
2022-11-12T02:29:16.057Z,99120.94
2022-11-12T02:32:15.750Z,99118.05
2022-11-12T11:51:09.966Z,99123.50
2022-11-12T11:54:42.996Z,99118.80
2022-11-12T11:57:39.143Z,99116.30
2022-11-12T12:00:37.648Z,99121.05
2022-11-12T12:03:32.975Z,99125.27
2022-11-12T12:06:27.614Z,99121.92
2022-11-12T12:09:32.319Z,99123.42
2022-11-12T12:12:40.709Z,99124.39
2022-11-12T12:15:53.392Z,99126.69
2022-11-12T12:19:29.179Z,99123.73
2022-11-12T12:22:41.086Z,99125.50
2022-11-12T12:25:39.710Z,99129.19
2022-11-12T12:28:42.954Z,99126.77
2022-11-12T12:31:46.319Z,99123.85
2022-11-12T12:34:40.074Z,99124.40
2022-11-12T12:37:42.089Z,99120.10
2022-11-12T12:40:38.369Z,99115.86
2022-11-12T12:43:39.646Z,99114.15
2022-11-12T12:46:38.777Z,99114.02
2022-11-12T12:49:38.333Z,99111.16
2022-11-12T12:53:06.871Z,99111.20
2022-11-12T12:55:58.823Z,99116.45
2022-11-12T12:58:50.797Z,99116.41
2022-11-12T13:01:41.172Z,99113.69
2022-11-12T13:04:53.778Z,99112.25
2022-11-12T13:07:46.651Z,99112.52
2022-11-12T13:10:58.973Z,99113.95
2022-11-12T13:13:51.795Z,99112.13
2022-11-12T13:16:59.375Z,99108.91
2022-11-12T13:20:09.976Z,99104.17
2022-11-12T13:23:00.100Z,99103.27
2022-11-12T13:25:52.687Z,99106.08
2022-11-12T13:29:22.643Z,99107.83
2022-11-12T13:35:35.057Z,99107.19
2022-11-12T13:38:22.529Z,99106.33
2022-11-12T13:45:14.681Z,99111.90
2022-11-12T13:48:10.112Z,99114.50
2022-11-12T13:51:19.941Z,99113.66
2022-11-12T13:54:33.785Z,99115.09
2022-11-12T13:57:32.306Z,99113.44
2022-11-12T14:00:28.422Z,99114.77
2022-11-12T14:03:21.385Z,99120.48
2022-11-12T14:06:19.369Z,99122.27
2022-11-12T14:09:35.461Z,99121.10
2022-11-12T14:12:46.254Z,99119.29
2022-11-12T14:15:59.446Z,99113.18
2022-11-12T14:25:35.200Z,99114.46
2022-11-12T14:28:59.405Z,99114.06
2022-11-12T14:32:00.818Z,99108.16
2022-11-12T14:34:57.203Z,99115.17
2022-11-12T14:37:52.528Z,99119.73
2022-11-12T14:40:52.079Z,99116.33
2022-11-12T14:43:46.341Z,99120.55
2022-11-12T14:46:47.461Z,99127.34
2022-11-12T14:49:45.217Z,99135.68
2022-11-12T14:52:41.283Z,99133.27
2022-11-12T14:55:42.771Z,99130.89
2022-11-12T14:58:37.668Z,99126.09
2022-11-12T15:02:14.256Z,99127.85
2022-11-12T15:04:55.888Z,99129.09
2022-11-12T15:07:58.300Z,99126.02
2022-11-12T15:10:48.689Z,99125.17
2022-11-12T15:13:44.247Z,99126.72
2022-11-12T15:16:44.363Z,99127.94
2022-11-12T15:19:42.740Z,99129.66
2022-11-12T15:22:33.691Z,99125.52
2022-11-12T15:25:42.722Z,99135.52
2022-11-12T15:28:35.261Z,99137.05
2022-11-12T15:31:47.961Z,99137.91
2022-11-12T15:34:49.720Z,99141.50
2022-11-12T15:37:47.496Z,99146.80
2022-11-12T15:40:46.481Z,99151.96
2022-11-12T15:43:46.392Z,99153.48
2022-11-12T15:46:37.827Z,99156.36
2022-11-12T15:49:47.519Z,99161.81
2022-11-12T15:52:37.810Z,99157.82
2022-11-12T15:55:39.390Z,99154.02
2022-11-12T15:58:41.877Z,99157.40
2022-11-12T16:01:40.913Z,99157.54
2022-11-12T16:04:39.155Z,99157.89
2022-11-12T16:07:38.333Z,99162.35
2022-11-12T16:10:34.749Z,99160.91
2022-11-12T16:13:48.795Z,99163.63
2022-11-12T16:16:41.769Z,99166.33
2022-11-12T16:19:37.931Z,99166.58
2022-11-12T16:22:39.120Z,99164.13
2022-11-12T16:25:41.104Z,99162.88
2022-11-12T16:28:36.420Z,99163.04
2022-11-12T16:31:43.127Z,99165.73
2022-11-12T16:34:36.260Z,99164.77
2022-11-12T16:37:37.963Z,99165.59
2022-11-12T16:40:36.841Z,99166.10
2022-11-12T16:43:35.987Z,99163.00
2022-11-12T16:46:40.556Z,99164.20
2022-11-12T16:49:38.643Z,99165.19
2022-11-12T16:52:34.923Z,99168.10
2022-11-12T16:55:47.780Z,99161.58
2022-11-12T16:58:41.435Z,99161.59
2022-11-12T17:01:46.851Z,99161.77
2022-11-12T17:04:41.964Z,99172.57
2022-11-12T17:07:36.641Z,99173.61
2022-11-12T17:10:35.828Z,99171.75
2022-11-12T17:13:49.449Z,99178.41
2022-11-12T17:16:40.689Z,99174.27
2022-11-12T17:19:48.786Z,99174.85
2022-11-12T17:22:41.579Z,99171.74
2022-11-12T17:25:37.081Z,99174.55
2022-11-12T17:28:35.605Z,99172.52
2022-11-12T17:31:41.581Z,99173.02
2022-11-12T17:34:37.213Z,99178.02
2022-11-12T17:37:46.040Z,99176.49
2022-11-12T17:40:36.186Z,99171.48
2022-11-12T17:43:38.360Z,99173.20
2022-11-12T17:46:35.841Z,99175.79
2022-11-12T17:49:44.879Z,99179.77
2022-11-12T17:52:37.670Z,99179.43
2022-11-12T17:55:41.703Z,99179.09
2022-11-12T17:58:35.269Z,99179.80
2022-11-12T18:01:35.785Z,99181.19
2022-11-12T18:04:40.700Z,99177.90
2022-11-12T18:07:52.238Z,99177.73
2022-11-12T20:47:18.631Z,99218.34
2022-11-12T20:50:10.577Z,99212.67
2022-11-12T20:52:59.519Z,99214.91
2022-11-12T20:55:50.227Z,99210.09
2022-11-12T20:58:40.607Z,99211.30
2022-11-12T21:01:30.339Z,99214.58
2022-11-12T21:04:18.948Z,99218.36
2022-11-12T21:07:07.523Z,99216.46
2022-11-12T21:09:56.051Z,99218.84
2022-11-12T21:12:45.102Z,99221.02
2022-11-12T21:15:32.828Z,99222.71
2022-11-12T21:18:26.151Z,99226.95
2022-11-12T21:21:17.254Z,99225.36
2022-11-12T21:24:06.246Z,99220.86
2022-11-12T21:26:54.526Z,99223.61
2022-11-12T21:29:42.648Z,99223.79
2022-11-12T21:32:32.927Z,99223.77
2022-11-12T21:35:22.478Z,99226.84
2022-11-12T21:38:12.153Z,99225.64
2022-11-12T21:41:11.678Z,99217.94
2022-11-12T21:44:02.949Z,99220.55
2022-11-12T21:46:53.904Z,99219.88
2022-11-12T21:49:48.908Z,99218.85
2022-11-12T21:52:40.176Z,99217.48
2022-11-12T21:55:32.690Z,99213.00
2022-11-12T21:58:23.085Z,99214.55
2022-11-12T22:01:16.906Z,99218.50
2022-11-12T22:04:10.953Z,99220.89
2022-11-12T22:07:03.766Z,99218.44
2022-11-12T22:09:56.693Z,99216.57
2022-11-12T22:13:12.025Z,99212.46
2022-11-12T22:15:55.194Z,99211.95
2022-11-12T22:18:46.759Z,99210.73
2022-11-12T22:21:39.955Z,99209.55
2022-11-12T22:24:29.920Z,99205.76
2022-11-12T22:27:19.772Z,99202.17
2022-11-12T22:30:11.396Z,99201.17
2022-11-12T22:33:01.302Z,99193.08
2022-11-12T22:35:52.520Z,99198.08
2022-11-12T22:38:44.046Z,99204.07
2022-11-12T22:41:35.939Z,99199.06
2022-11-12T22:44:24.959Z,99195.24
2022-11-12T22:47:15.030Z,99188.89
2022-11-12T22:50:04.720Z,99192.27
2022-11-12T22:52:55.790Z,99199.19
2022-11-12T22:55:44.717Z,99203.06
2022-11-12T22:58:38.691Z,99202.46
2022-11-12T23:01:33.280Z,99193.50
2022-11-12T23:04:23.415Z,99199.16
2022-11-12T23:07:13.346Z,99194.52
2022-11-12T23:10:06.978Z,99203.91
2022-11-12T23:12:57.083Z,99204.90
2022-11-12T23:15:46.697Z,99205.06
2022-11-12T23:18:35.939Z,99206.77
2022-11-12T23:21:29.411Z,99202.60
2022-11-12T23:24:18.870Z,99199.14
2022-11-12T23:27:07.954Z,99197.61
2022-11-12T23:29:57.092Z,99199.55
2022-11-12T23:32:46.758Z,99195.32
2022-11-12T23:35:35.988Z,99192.56
2022-11-12T23:38:25.968Z,99197.94
2022-11-12T23:41:17.273Z,99199.85
2022-11-12T23:44:07.414Z,99200.91
2022-11-12T23:46:56.521Z,99198.86
2022-11-12T23:49:47.783Z,99193.52
2022-11-12T23:52:37.227Z,99189.27
2022-11-12T23:55:30.600Z,99187.58
2022-11-12T23:58:20.856Z,99185.89
